sensor_id;sensor_type;location;lat;lon;timestamp;P1;durP1;ratioP1;P2;durP2;ratioP2
16800;SDS011;8518;53.236;10.384;2022-10-15T00:02:12;5.93;;;5.33;;
16800;SDS011;8518;53.236;10.384;2022-10-15T00:04:37;8.80;;;6.10;;
16800;SDS011;8518;53.236;10.384;2022-10-15T00:07:03;6.33;;;5.43;;
16800;SDS011;8518;53.236;10.384;2022-10-15T00:09:29;9.33;;;5.70;;
16800;SDS011;8518;53.236;10.384;2022-10-15T00:11:54;6.03;;;5.43;;
16800;SDS011;8518;53.236;10.384;2022-10-15T00:14:20;6.97;;;5.50;;
16800;SDS011;8518;53.236;10.384;2022-10-15T00:16:46;7.13;;;5.63;;
16800;SDS011;8518;53.236;10.384;2022-10-15T00:19:11;7.27;;;5.67;;
16800;SDS011;8518;53.236;10.384;2022-10-15T00:21:37;7.37;;;5.80;;
16800;SDS011;8518;53.236;10.384;2022-10-15T00:24:04;7.00;;;5.83;;
16800;SDS011;8518;53.236;10.384;2022-10-15T00:26:30;7.70;;;6.47;;
16800;SDS011;8518;53.236;10.384;2022-10-15T00:28:57;6.43;;;5.80;;
16800;SDS011;8518;53.236;10.384;2022-10-15T00:31:25;7.57;;;5.83;;
16800;SDS011;8518;53.236;10.384;2022-10-15T00:33:54;7.80;;;6.13;;
16800;SDS011;8518;53.236;10.384;2022-10-15T00:36:22;7.73;;;5.97;;
16800;SDS011;8518;53.236;10.384;2022-10-15T00:38:49;8.47;;;6.43;;
16800;SDS011;8518;53.236;10.384;2022-10-15T00:41:17;7.57;;;6.80;;
16800;SDS011;8518;53.236;10.384;2022-10-15T00:43:52;8.80;;;6.77;;
16800;SDS011;8518;53.236;10.384;2022-10-15T00:46:24;7.37;;;6.63;;
16800;SDS011;8518;53.236;10.384;2022-10-15T00:48:55;8.93;;;6.80;;
16800;SDS011;8518;53.236;10.384;2022-10-15T00:51:25;8.47;;;7.03;;
16800;SDS011;8518;53.236;10.384;2022-10-15T00:53:55;9.10;;;6.90;;
16800;SDS011;8518;53.236;10.384;2022-10-15T00:56:21;7.60;;;6.83;;
16800;SDS011;8518;53.236;10.384;2022-10-15T00:58:49;7.77;;;6.63;;
16800;SDS011;8518;53.236;10.384;2022-10-15T01:01:17;8.10;;;7.27;;
16800;SDS011;8518;53.236;10.384;2022-10-15T01:03:43;8.37;;;7.00;;
16800;SDS011;8518;53.236;10.384;2022-10-15T01:06:09;8.20;;;6.97;;
16800;SDS011;8518;53.236;10.384;2022-10-15T01:08:35;8.70;;;7.40;;
16800;SDS011;8518;53.236;10.384;2022-10-15T01:11:08;9.10;;;6.53;;
16800;SDS011;8518;53.236;10.384;2022-10-15T01:13:58;10.67;;;7.60;;
16800;SDS011;8518;53.236;10.384;2022-10-15T01:16:49;8.53;;;7.63;;
16800;SDS011;8518;53.236;10.384;2022-10-15T01:19:46;10.57;;;8.03;;
16800;SDS011;8518;53.236;10.384;2022-10-15T01:30:34;9.93;;;8.93;;
16800;SDS011;8518;53.236;10.384;2022-10-15T01:35:49;10.00;;;8.90;;
16800;SDS011;8518;53.236;10.384;2022-10-15T01:38:44;11.17;;;10.07;;
16800;SDS011;8518;53.236;10.384;2022-10-15T01:47:11;12.90;;;9.93;;
16800;SDS011;8518;53.236;10.384;2022-10-15T01:49:44;11.40;;;9.80;;
16800;SDS011;8518;53.236;10.384;2022-10-15T01:52:13;12.20;;;9.97;;
16800;SDS011;8518;53.236;10.384;2022-10-15T01:54:47;11.13;;;10.00;;
16800;SDS011;8518;53.236;10.384;2022-10-15T01:57:16;12.63;;;10.70;;
16800;SDS011;8518;53.236;10.384;2022-10-15T01:59:44;13.33;;;10.43;;
16800;SDS011;8518;53.236;10.384;2022-10-15T02:02:09;12.27;;;10.90;;
16800;SDS011;8518;53.236;10.384;2022-10-15T02:04:35;13.67;;;11.87;;
16800;SDS011;8518;53.236;10.384;2022-10-15T02:07:02;13.27;;;11.87;;
16800;SDS011;8518;53.236;10.384;2022-10-15T02:12:04;14.10;;;12.60;;
16800;SDS011;8518;53.236;10.384;2022-10-15T02:14:53;13.77;;;12.30;;
16800;SDS011;8518;53.236;10.384;2022-10-15T02:17:44;14.63;;;12.63;;
16800;SDS011;8518;53.236;10.384;2022-10-15T02:20:23;14.27;;;12.37;;
16800;SDS011;8518;53.236;10.384;2022-10-15T02:23:18;15.33;;;13.13;;
16800;SDS011;8518;53.236;10.384;2022-10-15T02:25:48;14.50;;;13.10;;
16800;SDS011;8518;53.236;10.384;2022-10-15T02:28:16;14.13;;;12.60;;
16800;SDS011;8518;53.236;10.384;2022-10-15T02:30:43;14.23;;;12.73;;
16800;SDS011;8518;53.236;10.384;2022-10-15T02:33:12;15.63;;;14.03;;
16800;SDS011;8518;53.236;10.384;2022-10-15T02:35:40;15.63;;;14.07;;
16800;SDS011;8518;53.236;10.384;2022-10-15T02:38:07;17.50;;;14.53;;
16800;SDS011;8518;53.236;10.384;2022-10-15T02:40:37;16.33;;;14.23;;
16800;SDS011;8518;53.236;10.384;2022-10-15T02:43:05;14.67;;;13.10;;
16800;SDS011;8518;53.236;10.384;2022-10-15T02:45:34;15.80;;;13.83;;
16800;SDS011;8518;53.236;10.384;2022-10-15T02:48:00;14.83;;;13.20;;
16800;SDS011;8518;53.236;10.384;2022-10-15T02:50:26;15.60;;;13.33;;
16800;SDS011;8518;53.236;10.384;2022-10-15T02:52:51;15.80;;;13.97;;
16800;SDS011;8518;53.236;10.384;2022-10-15T02:55:17;16.03;;;13.40;;
16800;SDS011;8518;53.236;10.384;2022-10-15T02:57:43;14.13;;;12.63;;
16800;SDS011;8518;53.236;10.384;2022-10-15T03:00:08;15.60;;;13.43;;
16800;SDS011;8518;53.236;10.384;2022-10-15T03:02:35;16.87;;;13.63;;
16800;SDS011;8518;53.236;10.384;2022-10-15T03:05:00;15.50;;;13.23;;
16800;SDS011;8518;53.236;10.384;2022-10-15T03:07:26;14.80;;;13.20;;
16800;SDS011;8518;53.236;10.384;2022-10-15T03:09:52;16.00;;;12.53;;
16800;SDS011;8518;53.236;10.384;2022-10-15T03:12:17;15.87;;;13.57;;
16800;SDS011;8518;53.236;10.384;2022-10-15T03:14:47;16.57;;;12.77;;
16800;SDS011;8518;53.236;10.384;2022-10-15T03:17:15;15.20;;;12.97;;
16800;SDS011;8518;53.236;10.384;2022-10-15T03:19:41;13.90;;;12.40;;
16800;SDS011;8518;53.236;10.384;2022-10-15T03:22:07;14.23;;;12.40;;
16800;SDS011;8518;53.236;10.384;2022-10-15T03:24:33;16.70;;;12.80;;
16800;SDS011;8518;53.236;10.384;2022-10-15T03:26:58;15.60;;;11.87;;
16800;SDS011;8518;53.236;10.384;2022-10-15T03:29:24;13.10;;;11.80;;
16800;SDS011;8518;53.236;10.384;2022-10-15T03:31:49;13.63;;;12.13;;
16800;SDS011;8518;53.236;10.384;2022-10-15T03:34:15;16.00;;;12.20;;
16800;SDS011;8518;53.236;10.384;2022-10-15T03:36:41;15.43;;;12.80;;
16800;SDS011;8518;53.236;10.384;2022-10-15T03:39:06;18.13;;;13.07;;
16800;SDS011;8518;53.236;10.384;2022-10-15T03:41:32;14.33;;;12.57;;
16800;SDS011;8518;53.236;10.384;2022-10-15T03:44:01;14.70;;;13.13;;
16800;SDS011;8518;53.236;10.384;2022-10-15T03:46:29;14.83;;;12.13;;
16800;SDS011;8518;53.236;10.384;2022-10-15T03:48:55;16.37;;;12.87;;
16800;SDS011;8518;53.236;10.384;2022-10-15T03:51:20;17.47;;;12.90;;
16800;SDS011;8518;53.236;10.384;2022-10-15T03:53:46;16.80;;;13.10;;
16800;SDS011;8518;53.236;10.384;2022-10-15T03:56:12;15.90;;;12.90;;
16800;SDS011;8518;53.236;10.384;2022-10-15T03:58:37;17.27;;;13.03;;
16800;SDS011;8518;53.236;10.384;2022-10-15T04:01:10;17.40;;;13.70;;
16800;SDS011;8518;53.236;10.384;2022-10-15T04:03:37;15.27;;;13.63;;
16800;SDS011;8518;53.236;10.384;2022-10-15T04:06:03;15.67;;;13.80;;
16800;SDS011;8518;53.236;10.384;2022-10-15T04:08:29;17.10;;;14.60;;
16800;SDS011;8518;53.236;10.384;2022-10-15T04:10:54;16.80;;;14.60;;
16800;SDS011;8518;53.236;10.384;2022-10-15T04:13:20;17.00;;;14.73;;
16800;SDS011;8518;53.236;10.384;2022-10-15T04:15:46;19.50;;;14.80;;
16800;SDS011;8518;53.236;10.384;2022-10-15T04:18:12;22.70;;;16.33;;
16800;SDS011;8518;53.236;10.384;2022-10-15T04:20:38;22.83;;;16.50;;
16800;SDS011;8518;53.236;10.384;2022-10-15T04:23:03;22.97;;;17.07;;
16800;SDS011;8518;53.236;10.384;2022-10-15T04:25:29;22.07;;;16.27;;
16800;SDS011;8518;53.236;10.384;2022-10-15T04:27:54;22.03;;;15.90;;
16800;SDS011;8518;53.236;10.384;2022-10-15T04:30:20;23.20;;;17.50;;
16800;SDS011;8518;53.236;10.384;2022-10-15T04:32:46;19.67;;;16.30;;
16800;SDS011;8518;53.236;10.384;2022-10-15T04:35:11;22.73;;;16.87;;
16800;SDS011;8518;53.236;10.384;2022-10-15T04:37:37;25.53;;;18.10;;
16800;SDS011;8518;53.236;10.384;2022-10-15T04:40:03;22.80;;;17.97;;
16800;SDS011;8518;53.236;10.384;2022-10-15T04:42:29;25.53;;;18.50;;
16800;SDS011;8518;53.236;10.384;2022-10-15T04:44:55;23.93;;;17.93;;
16800;SDS011;8518;53.236;10.384;2022-10-15T04:47:21;27.70;;;19.80;;
16800;SDS011;8518;53.236;10.384;2022-10-15T04:49:47;28.50;;;20.63;;
16800;SDS011;8518;53.236;10.384;2022-10-15T04:52:13;26.70;;;19.13;;
16800;SDS011;8518;53.236;10.384;2022-10-15T04:54:39;27.07;;;19.60;;
16800;SDS011;8518;53.236;10.384;2022-10-15T04:57:04;24.67;;;19.00;;
16800;SDS011;8518;53.236;10.384;2022-10-15T04:59:30;30.33;;;19.73;;
16800;SDS011;8518;53.236;10.384;2022-10-15T05:01:56;28.43;;;19.97;;
16800;SDS011;8518;53.236;10.384;2022-10-15T05:04:22;29.67;;;20.63;;
16800;SDS011;8518;53.236;10.384;2022-10-15T05:06:47;29.57;;;19.37;;
16800;SDS011;8518;53.236;10.384;2022-10-15T05:09:13;26.93;;;18.60;;
16800;SDS011;8518;53.236;10.384;2022-10-15T05:11:38;24.33;;;17.20;;
16800;SDS011;8518;53.236;10.384;2022-10-15T05:14:04;21.90;;;15.67;;
16800;SDS011;8518;53.236;10.384;2022-10-15T05:16:31;22.50;;;15.23;;
16800;SDS011;8518;53.236;10.384;2022-10-15T05:18:58;18.03;;;14.03;;
16800;SDS011;8518;53.236;10.384;2022-10-15T05:21:25;20.63;;;13.90;;
16800;SDS011;8518;53.236;10.384;2022-10-15T05:23:51;16.17;;;12.37;;
16800;SDS011;8518;53.236;10.384;2022-10-15T05:26:19;18.40;;;13.07;;
16800;SDS011;8518;53.236;10.384;2022-10-15T05:28:47;16.70;;;12.37;;
16800;SDS011;8518;53.236;10.384;2022-10-15T05:31:14;16.93;;;13.00;;
16800;SDS011;8518;53.236;10.384;2022-10-15T05:33:41;15.20;;;11.87;;
16800;SDS011;8518;53.236;10.384;2022-10-15T05:36:11;15.03;;;12.60;;
16800;SDS011;8518;53.236;10.384;2022-10-15T05:38:37;17.87;;;12.30;;
16800;SDS011;8518;53.236;10.384;2022-10-15T05:41:02;16.10;;;13.20;;
16800;SDS011;8518;53.236;10.384;2022-10-15T05:43:28;17.70;;;14.33;;
16800;SDS011;8518;53.236;10.384;2022-10-15T05:45:54;18.90;;;13.97;;
16800;SDS011;8518;53.236;10.384;2022-10-15T05:48:20;21.07;;;14.50;;
16800;SDS011;8518;53.236;10.384;2022-10-15T05:50:46;17.93;;;14.03;;
16800;SDS011;8518;53.236;10.384;2022-10-15T05:53:11;20.07;;;14.47;;
16800;SDS011;8518;53.236;10.384;2022-10-15T05:55:37;17.40;;;13.77;;
16800;SDS011;8518;53.236;10.384;2022-10-15T05:58:03;21.07;;;15.90;;
16800;SDS011;8518;53.236;10.384;2022-10-15T06:00:29;21.20;;;15.53;;
16800;SDS011;8518;53.236;10.384;2022-10-15T06:02:55;21.07;;;15.23;;
16800;SDS011;8518;53.236;10.384;2022-10-15T06:05:21;23.53;;;15.23;;
16800;SDS011;8518;53.236;10.384;2022-10-15T06:07:47;18.87;;;14.67;;
16800;SDS011;8518;53.236;10.384;2022-10-15T06:10:12;20.00;;;14.93;;
16800;SDS011;8518;53.236;10.384;2022-10-15T06:12:38;18.70;;;13.87;;
16800;SDS011;8518;53.236;10.384;2022-10-15T06:15:04;21.57;;;15.20;;
16800;SDS011;8518;53.236;10.384;2022-10-15T06:17:30;19.37;;;15.37;;
16800;SDS011;8518;53.236;10.384;2022-10-15T06:19:56;20.37;;;15.10;;
16800;SDS011;8518;53.236;10.384;2022-10-15T06:22:22;18.27;;;14.90;;
16800;SDS011;8518;53.236;10.384;2022-10-15T06:24:48;18.80;;;14.00;;
16800;SDS011;8518;53.236;10.384;2022-10-15T06:27:13;16.83;;;13.80;;
16800;SDS011;8518;53.236;10.384;2022-10-15T06:29:39;18.00;;;13.83;;
16800;SDS011;8518;53.236;10.384;2022-10-15T06:32:08;16.57;;;13.07;;
16800;SDS011;8518;53.236;10.384;2022-10-15T06:34:35;16.57;;;13.90;;
16800;SDS011;8518;53.236;10.384;2022-10-15T06:37:00;17.03;;;13.33;;
16800;SDS011;8518;53.236;10.384;2022-10-15T06:39:26;15.60;;;13.03;;
16800;SDS011;8518;53.236;10.384;2022-10-15T06:41:51;18.47;;;13.43;;
16800;SDS011;8518;53.236;10.384;2022-10-15T06:44:17;19.00;;;13.97;;
16800;SDS011;8518;53.236;10.384;2022-10-15T06:46:43;16.20;;;13.37;;
16800;SDS011;8518;53.236;10.384;2022-10-15T06:49:08;18.43;;;14.13;;
16800;SDS011;8518;53.236;10.384;2022-10-15T06:51:34;18.93;;;13.43;;
16800;SDS011;8518;53.236;10.384;2022-10-15T06:54:01;16.67;;;13.13;;
16800;SDS011;8518;53.236;10.384;2022-10-15T06:56:28;20.63;;;13.80;;
16800;SDS011;8518;53.236;10.384;2022-10-15T06:58:53;17.83;;;14.00;;
16800;SDS011;8518;53.236;10.384;2022-10-15T07:01:19;19.37;;;14.57;;
16800;SDS011;8518;53.236;10.384;2022-10-15T07:03:48;21.17;;;15.37;;
16800;SDS011;8518;53.236;10.384;2022-10-15T07:06:16;18.90;;;15.13;;
16800;SDS011;8518;53.236;10.384;2022-10-15T07:08:42;19.13;;;15.43;;
16800;SDS011;8518;53.236;10.384;2022-10-15T07:11:09;21.63;;;16.03;;
16800;SDS011;8518;53.236;10.384;2022-10-15T07:13:34;18.93;;;15.10;;
16800;SDS011;8518;53.236;10.384;2022-10-15T07:16:04;19.47;;;14.80;;
16800;SDS011;8518;53.236;10.384;2022-10-15T07:18:30;16.60;;;13.67;;
16800;SDS011;8518;53.236;10.384;2022-10-15T07:20:56;18.27;;;13.97;;
16800;SDS011;8518;53.236;10.384;2022-10-15T07:23:22;17.83;;;14.43;;
16800;SDS011;8518;53.236;10.384;2022-10-15T07:25:48;17.57;;;13.63;;
16800;SDS011;8518;53.236;10.384;2022-10-15T07:28:13;17.97;;;13.77;;
16800;SDS011;8518;53.236;10.384;2022-10-15T07:30:39;17.60;;;13.23;;
16800;SDS011;8518;53.236;10.384;2022-10-15T07:33:04;15.67;;;12.67;;
16800;SDS011;8518;53.236;10.384;2022-10-15T07:35:30;15.43;;;11.57;;
16800;SDS011;8518;53.236;10.384;2022-10-15T07:37:58;14.03;;;11.90;;
16800;SDS011;8518;53.236;10.384;2022-10-15T07:40:25;15.47;;;12.47;;
16800;SDS011;8518;53.236;10.384;2022-10-15T07:42:51;13.53;;;11.33;;
16800;SDS011;8518;53.236;10.384;2022-10-15T07:45:20;17.10;;;13.33;;
16800;SDS011;8518;53.236;10.384;2022-10-15T07:47:46;13.33;;;11.57;;
16800;SDS011;8518;53.236;10.384;2022-10-15T07:50:12;15.80;;;12.23;;
16800;SDS011;8518;53.236;10.384;2022-10-15T07:52:38;13.00;;;11.23;;
16800;SDS011;8518;53.236;10.384;2022-10-15T07:55:03;18.70;;;11.70;;
16800;SDS011;8518;53.236;10.384;2022-10-15T07:57:29;16.90;;;11.53;;
16800;SDS011;8518;53.236;10.384;2022-10-15T07:59:55;12.80;;;10.83;;
16800;SDS011;8518;53.236;10.384;2022-10-15T08:02:21;13.17;;;11.13;;
16800;SDS011;8518;53.236;10.384;2022-10-15T08:04:46;14.20;;;11.17;;
16800;SDS011;8518;53.236;10.384;2022-10-15T08:07:12;16.67;;;11.57;;
16800;SDS011;8518;53.236;10.384;2022-10-15T08:09:38;12.80;;;10.60;;
16800;SDS011;8518;53.236;10.384;2022-10-15T08:12:04;11.33;;;9.97;;
16800;SDS011;8518;53.236;10.384;2022-10-15T08:14:31;11.77;;;10.50;;
16800;SDS011;8518;53.236;10.384;2022-10-15T08:16:57;11.77;;;9.55;;
16800;SDS011;8518;53.236;10.384;2022-10-15T08:19:23;10.35;;;9.07;;
16800;SDS011;8518;53.236;10.384;2022-10-15T08:21:49;10.05;;;8.68;;
16800;SDS011;8518;53.236;10.384;2022-10-15T08:24:14;10.20;;;9.15;;
16800;SDS011;8518;53.236;10.384;2022-10-15T08:26:40;11.20;;;9.02;;
16800;SDS011;8518;53.236;10.384;2022-10-15T08:29:05;11.93;;;9.25;;
16800;SDS011;8518;53.236;10.384;2022-10-15T08:31:31;9.73;;;8.70;;
16800;SDS011;8518;53.236;10.384;2022-10-15T08:34:00;12.88;;;9.10;;
16800;SDS011;8518;53.236;10.384;2022-10-15T08:36:27;9.65;;;8.65;;
16800;SDS011;8518;53.236;10.384;2022-10-15T08:38:52;11.20;;;8.60;;
16800;SDS011;8518;53.236;10.384;2022-10-15T08:43:46;9.82;;;8.82;;
16800;SDS011;8518;53.236;10.384;2022-10-15T08:46:32;11.55;;;9.27;;
16800;SDS011;8518;53.236;10.384;2022-10-15T08:49:54;9.43;;;8.20;;
16800;SDS011;8518;53.236;10.384;2022-10-15T08:54:57;9.00;;;7.75;;
16800;SDS011;8518;53.236;10.384;2022-10-15T09:00:22;9.38;;;7.55;;
16800;SDS011;8518;53.236;10.384;2022-10-15T09:02:54;10.73;;;8.40;;
16800;SDS011;8518;53.236;10.384;2022-10-15T09:05:40;10.27;;;7.97;;
16800;SDS011;8518;53.236;10.384;2022-10-15T09:08:30;8.70;;;7.80;;
16800;SDS011;8518;53.236;10.384;2022-10-15T09:14:01;9.32;;;7.57;;
16800;SDS011;8518;53.236;10.384;2022-10-15T09:16:31;7.93;;;7.13;;
16800;SDS011;8518;53.236;10.384;2022-10-15T09:19:01;7.93;;;7.05;;
16800;SDS011;8518;53.236;10.384;2022-10-15T09:21:30;9.20;;;7.28;;
16800;SDS011;8518;53.236;10.384;2022-10-15T09:24:02;9.27;;;7.63;;
16800;SDS011;8518;53.236;10.384;2022-10-15T09:34:46;7.20;;;6.50;;
16800;SDS011;8518;53.236;10.384;2022-10-15T09:37:22;7.53;;;6.00;;
16800;SDS011;8518;53.236;10.384;2022-10-15T09:40:34;6.60;;;6.00;;
16800;SDS011;8518;53.236;10.384;2022-10-15T09:43:00;7.32;;;5.95;;
16800;SDS011;8518;53.236;10.384;2022-10-15T09:45:28;6.53;;;5.57;;
16800;SDS011;8518;53.236;10.384;2022-10-15T09:47:57;6.30;;;5.25;;
16800;SDS011;8518;53.236;10.384;2022-10-15T09:50:28;5.80;;;5.05;;
16800;SDS011;8518;53.236;10.384;2022-10-15T09:54:11;6.13;;;5.30;;
16800;SDS011;8518;53.236;10.384;2022-10-15T09:56:18;7.80;;;5.47;;
16800;SDS011;8518;53.236;10.384;2022-10-15T10:01:22;7.40;;;5.25;;
16800;SDS011;8518;53.236;10.384;2022-10-15T10:03:50;7.85;;;5.05;;
16800;SDS011;8518;53.236;10.384;2022-10-15T10:06:45;7.80;;;6.13;;
16800;SDS011;8518;53.236;10.384;2022-10-15T10:09:18;5.82;;;4.75;;
16800;SDS011;8518;53.236;10.384;2022-10-15T10:11:52;8.45;;;5.45;;
16800;SDS011;8518;53.236;10.384;2022-10-15T10:14:21;7.05;;;4.47;;
16800;SDS011;8518;53.236;10.384;2022-10-15T10:17:04;8.05;;;5.15;;
16800;SDS011;8518;53.236;10.384;2022-10-15T10:19:40;5.53;;;5.00;;
16800;SDS011;8518;53.236;10.384;2022-10-15T10:24:40;6.22;;;5.43;;
16800;SDS011;8518;53.236;10.384;2022-10-15T10:27:19;7.72;;;5.57;;
16800;SDS011;8518;53.236;10.384;2022-10-15T10:30:01;5.28;;;4.78;;
16800;SDS011;8518;53.236;10.384;2022-10-15T10:32:33;5.57;;;4.80;;
16800;SDS011;8518;53.236;10.384;2022-10-15T10:35:00;5.57;;;4.40;;
16800;SDS011;8518;53.236;10.384;2022-10-15T10:37:27;5.78;;;4.72;;
16800;SDS011;8518;53.236;10.384;2022-10-15T10:40:04;7.95;;;4.10;;
16800;SDS011;8518;53.236;10.384;2022-10-15T10:42:44;6.45;;;4.82;;
16800;SDS011;8518;53.236;10.384;2022-10-15T10:45:20;5.28;;;4.78;;
16800;SDS011;8518;53.236;10.384;2022-10-15T10:47:47;4.88;;;3.75;;
16800;SDS011;8518;53.236;10.384;2022-10-15T10:50:30;5.43;;;4.18;;
16800;SDS011;8518;53.236;10.384;2022-10-15T10:53:09;7.00;;;5.28;;
16800;SDS011;8518;53.236;10.384;2022-10-15T10:55:45;5.63;;;4.63;;
16800;SDS011;8518;53.236;10.384;2022-10-15T10:58:16;6.68;;;4.90;;
16800;SDS011;8518;53.236;10.384;2022-10-15T11:00:45;5.30;;;4.20;;
16800;SDS011;8518;53.236;10.384;2022-10-15T11:05:44;4.50;;;3.75;;
16800;SDS011;8518;53.236;10.384;2022-10-15T11:19:44;4.28;;;3.00;;
16800;SDS011;8518;53.236;10.384;2022-10-15T11:22:20;2.75;;;2.42;;
16800;SDS011;8518;53.236;10.384;2022-10-15T11:30:51;3.10;;;2.30;;
16800;SDS011;8518;53.236;10.384;2022-10-15T11:36:30;2.75;;;2.10;;
16800;SDS011;8518;53.236;10.384;2022-10-15T11:47:07;2.80;;;1.20;;
16800;SDS011;8518;53.236;10.384;2022-10-15T11:52:22;3.00;;;1.38;;
16800;SDS011;8518;53.236;10.384;2022-10-15T11:54:59;2.25;;;1.40;;
16800;SDS011;8518;53.236;10.384;2022-10-15T11:57:43;3.22;;;1.50;;
16800;SDS011;8518;53.236;10.384;2022-10-15T12:00:53;2.35;;;1.30;;
16800;SDS011;8518;53.236;10.384;2022-10-15T12:03:17;3.63;;;1.63;;
16800;SDS011;8518;53.236;10.384;2022-10-15T12:05:49;3.53;;;1.95;;
16800;SDS011;8518;53.236;10.384;2022-10-15T12:08:22;2.38;;;2.03;;
16800;SDS011;8518;53.236;10.384;2022-10-15T12:11:10;3.65;;;2.80;;
16800;SDS011;8518;53.236;10.384;2022-10-15T12:13:50;2.38;;;2.03;;
16800;SDS011;8518;53.236;10.384;2022-10-15T12:16:40;4.78;;;3.20;;
16800;SDS011;8518;53.236;10.384;2022-10-15T12:19:27;4.43;;;3.60;;
16800;SDS011;8518;53.236;10.384;2022-10-15T12:22:01;3.75;;;3.45;;
16800;SDS011;8518;53.236;10.384;2022-10-15T12:32:27;6.53;;;5.93;;
16800;SDS011;8518;53.236;10.384;2022-10-15T12:37:40;7.75;;;7.05;;
16800;SDS011;8518;53.236;10.384;2022-10-15T12:42:54;9.15;;;7.43;;
16800;SDS011;8518;53.236;10.384;2022-10-15T12:45:22;11.55;;;7.97;;
16800;SDS011;8518;53.236;10.384;2022-10-15T12:48:15;8.23;;;7.28;;
16800;SDS011;8518;53.236;10.384;2022-10-15T12:53:48;8.52;;;7.20;;
16800;SDS011;8518;53.236;10.384;2022-10-15T12:58:50;6.50;;;5.80;;
16800;SDS011;8518;53.236;10.384;2022-10-15T13:03:44;7.85;;;6.70;;
16800;SDS011;8518;53.236;10.384;2022-10-15T13:11:18;7.25;;;6.55;;
16800;SDS011;8518;53.236;10.384;2022-10-15T13:13:58;8.82;;;7.05;;
16800;SDS011;8518;53.236;10.384;2022-10-15T13:16:25;9.35;;;7.53;;
16800;SDS011;8518;53.236;10.384;2022-10-15T13:18:52;8.05;;;7.32;;
16800;SDS011;8518;53.236;10.384;2022-10-15T13:21:20;8.00;;;7.20;;
16800;SDS011;8518;53.236;10.384;2022-10-15T13:23:47;8.38;;;7.57;;
16800;SDS011;8518;53.236;10.384;2022-10-15T13:26:22;7.78;;;7.07;;
16800;SDS011;8518;53.236;10.384;2022-10-15T13:28:55;8.20;;;7.40;;
16800;SDS011;8518;53.236;10.384;2022-10-15T13:31:23;7.63;;;6.95;;
16800;SDS011;8518;53.236;10.384;2022-10-15T13:33:51;7.93;;;7.18;;
16800;SDS011;8518;53.236;10.384;2022-10-15T13:36:37;7.72;;;7.03;;
16800;SDS011;8518;53.236;10.384;2022-10-15T13:44:37;6.47;;;5.88;;
16800;SDS011;8518;53.236;10.384;2022-10-15T13:47:16;6.47;;;5.88;;
16800;SDS011;8518;53.236;10.384;2022-10-15T13:49:48;6.30;;;5.70;;
16800;SDS011;8518;53.236;10.384;2022-10-15T13:52:14;7.47;;;6.40;;
16800;SDS011;8518;53.236;10.384;2022-10-15T13:54:39;6.40;;;5.80;;
16800;SDS011;8518;53.236;10.384;2022-10-15T13:57:09;6.70;;;6.00;;
16800;SDS011;8518;53.236;10.384;2022-10-15T13:59:42;5.50;;;5.07;;
16800;SDS011;8518;53.236;10.384;2022-10-15T14:02:09;5.88;;;5.22;;
16800;SDS011;8518;53.236;10.384;2022-10-15T14:04:36;5.43;;;5.03;;
16800;SDS011;8518;53.236;10.384;2022-10-15T14:07:03;5.40;;;4.93;;
16800;SDS011;8518;53.236;10.384;2022-10-15T14:09:45;5.70;;;5.20;;
16800;SDS011;8518;53.236;10.384;2022-10-15T14:12:11;6.80;;;6.20;;
16800;SDS011;8518;53.236;10.384;2022-10-15T14:14:38;6.53;;;5.70;;
16800;SDS011;8518;53.236;10.384;2022-10-15T14:17:09;6.40;;;5.80;;
16800;SDS011;8518;53.236;10.384;2022-10-15T14:19:43;5.85;;;5.35;;
16800;SDS011;8518;53.236;10.384;2022-10-15T14:22:15;6.70;;;5.35;;
16800;SDS011;8518;53.236;10.384;2022-10-15T14:24:43;6.50;;;5.85;;
16800;SDS011;8518;53.236;10.384;2022-10-15T14:27:13;5.72;;;5.10;;
16800;SDS011;8518;53.236;10.384;2022-10-15T14:29:42;5.53;;;5.03;;
16800;SDS011;8518;53.236;10.384;2022-10-15T14:32:26;5.45;;;4.95;;
16800;SDS011;8518;53.236;10.384;2022-10-15T14:34:57;5.97;;;4.63;;
16800;SDS011;8518;53.236;10.384;2022-10-15T14:42:36;4.82;;;4.43;;
16800;SDS011;8518;53.236;10.384;2022-10-15T14:45:27;5.90;;;5.28;;
16800;SDS011;8518;53.236;10.384;2022-10-15T14:48:21;5.80;;;5.05;;
16800;SDS011;8518;53.236;10.384;2022-10-15T14:50:49;4.00;;;3.70;;
16800;SDS011;8518;53.236;10.384;2022-10-15T14:53:19;6.45;;;4.22;;
16800;SDS011;8518;53.236;10.384;2022-10-15T14:55:50;5.72;;;4.82;;
16800;SDS011;8518;53.236;10.384;2022-10-15T14:58:20;4.90;;;4.18;;
16800;SDS011;8518;53.236;10.384;2022-10-15T15:00:56;5.03;;;4.40;;
16800;SDS011;8518;53.236;10.384;2022-10-15T15:03:41;4.75;;;4.35;;
16800;SDS011;8518;53.236;10.384;2022-10-15T15:06:13;4.72;;;4.10;;
16800;SDS011;8518;53.236;10.384;2022-10-15T15:08:39;5.10;;;4.27;;
16800;SDS011;8518;53.236;10.384;2022-10-15T15:11:05;4.72;;;3.83;;
16800;SDS011;8518;53.236;10.384;2022-10-15T15:13:39;4.72;;;4.20;;
16800;SDS011;8518;53.236;10.384;2022-10-15T15:16:08;4.32;;;4.00;;
16800;SDS011;8518;53.236;10.384;2022-10-15T15:18:37;4.77;;;4.33;;
16800;SDS011;8518;53.236;10.384;2022-10-15T15:21:04;4.95;;;4.45;;
16800;SDS011;8518;53.236;10.384;2022-10-15T15:23:31;4.50;;;4.10;;
16800;SDS011;8518;53.236;10.384;2022-10-15T15:25:58;4.57;;;4.13;;
16800;SDS011;8518;53.236;10.384;2022-10-15T15:28:24;4.80;;;4.40;;
16800;SDS011;8518;53.236;10.384;2022-10-15T15:30:55;4.70;;;4.30;;
16800;SDS011;8518;53.236;10.384;2022-10-15T15:33:31;4.33;;;3.90;;
16800;SDS011;8518;53.236;10.384;2022-10-15T15:36:01;4.90;;;4.20;;
16800;SDS011;8518;53.236;10.384;2022-10-15T15:38:33;3.73;;;3.43;;
16800;SDS011;8518;53.236;10.384;2022-10-15T15:41:20;3.93;;;3.63;;
16800;SDS011;8518;53.236;10.384;2022-10-15T15:43:46;4.20;;;3.83;;
16800;SDS011;8518;53.236;10.384;2022-10-15T15:46:12;4.90;;;3.80;;
16800;SDS011;8518;53.236;10.384;2022-10-15T15:48:38;5.10;;;4.13;;
16800;SDS011;8518;53.236;10.384;2022-10-15T15:51:05;4.93;;;3.87;;
16800;SDS011;8518;53.236;10.384;2022-10-15T15:53:48;4.50;;;4.10;;
16800;SDS011;8518;53.236;10.384;2022-10-15T15:56:14;4.10;;;3.70;;
16800;SDS011;8518;53.236;10.384;2022-10-15T15:58:40;5.77;;;4.00;;
16800;SDS011;8518;53.236;10.384;2022-10-15T16:01:06;4.10;;;3.77;;
16800;SDS011;8518;53.236;10.384;2022-10-15T16:03:32;3.73;;;3.33;;
16800;SDS011;8518;53.236;10.384;2022-10-15T16:05:57;4.20;;;3.77;;
16800;SDS011;8518;53.236;10.384;2022-10-15T16:08:23;4.33;;;3.93;;
16800;SDS011;8518;53.236;10.384;2022-10-15T16:10:48;4.23;;;3.80;;
16800;SDS011;8518;53.236;10.384;2022-10-15T16:13:14;4.43;;;3.57;;
16800;SDS011;8518;53.236;10.384;2022-10-15T16:15:40;4.97;;;3.47;;
16800;SDS011;8518;53.236;10.384;2022-10-15T16:18:05;3.90;;;3.47;;
16800;SDS011;8518;53.236;10.384;2022-10-15T16:20:31;4.10;;;3.70;;
16800;SDS011;8518;53.236;10.384;2022-10-15T16:22:59;4.17;;;3.77;;
16800;SDS011;8518;53.236;10.384;2022-10-15T16:25:25;4.30;;;3.80;;
16800;SDS011;8518;53.236;10.384;2022-10-15T16:27:51;4.43;;;3.93;;
16800;SDS011;8518;53.236;10.384;2022-10-15T16:30:17;3.87;;;3.23;;
16800;SDS011;8518;53.236;10.384;2022-10-15T16:32:43;4.00;;;3.40;;
16800;SDS011;8518;53.236;10.384;2022-10-15T16:35:09;4.20;;;3.80;;
16800;SDS011;8518;53.236;10.384;2022-10-15T16:37:35;4.17;;;3.57;;
16800;SDS011;8518;53.236;10.384;2022-10-15T16:40:00;4.13;;;3.40;;
16800;SDS011;8518;53.236;10.384;2022-10-15T16:42:26;5.73;;;4.00;;
16800;SDS011;8518;53.236;10.384;2022-10-15T16:44:51;4.60;;;3.90;;
16800;SDS011;8518;53.236;10.384;2022-10-15T16:47:17;4.90;;;4.40;;